Time;durP1;ratioP1;P1;durP2;ratioP2;P2;SDS_P1;SDS_P2;PMS_P1;PMS_P2;Temp;Humidity;BMP_temperature;BMP_pressure;BME280_temperature;BME280_humidity;BME280_pressure;Samples;Min_cycle;Max_cycle;Signal;HPM_P1;HPM_P2
2022/12/09 00:00:32;;;;;;;3.65;3.55;;;0.40;99.90;;;;;;5033403;28;20028;-76
2022/12/09 00:02:58;;;;;;;3.55;3.45;;;0.40;99.90;;;;;;5043126;28;20060;-75
2022/12/09 00:05:23;;;;;;;3.35;3.25;;;0.50;99.90;;;;;;5034925;28;20028;-74
2022/12/09 00:07:49;;;;;;;3.47;3.38;;;0.50;99.90;;;;;;5033615;28;20021;-74
2022/12/09 00:10:14;;;;;;;3.88;3.78;;;0.60;99.90;;;;;;5032017;28;20065;-74
2022/12/09 00:12:40;;;;;;;3.53;3.42;;;0.50;99.90;;;;;;5033273;28;20089;-75
2022/12/09 00:15:06;;;;;;;3.83;3.72;;;0.50;99.90;;;;;;5048951;28;20094;-73
2022/12/09 00:17:31;;;;;;;3.65;3.55;;;0.60;99.90;;;;;;5051273;28;20044;-74
2022/12/09 00:19:57;;;;;;;3.47;3.38;;;0.70;99.90;;;;;;5051763;28;20479;-74
2022/12/09 00:22:25;;;;;;;3.47;3.38;;;0.70;99.90;;;;;;5052877;28;20032;-74
2022/12/09 00:24:50;;;;;;;3.45;3.35;;;0.70;99.90;;;;;;5052669;28;20021;-74
2022/12/09 00:27:16;;;;;;;3.15;3.05;;;0.70;99.90;;;;;;5040322;28;20506;-74
2022/12/09 00:29:42;;;;;;;3.90;3.80;;;0.60;99.90;;;;;;5046066;28;20049;-74
2022/12/09 00:32:08;;;;;;;3.60;3.50;;;0.60;99.90;;;;;;5042626;28;20029;-73
2022/12/09 00:34:33;;;;;;;3.20;3.10;;;0.50;99.90;;;;;;5038137;28;20047;-73
2022/12/09 00:36:59;;;;;;;3.03;2.92;;;0.50;99.90;;;;;;5052410;28;20055;-74
2022/12/09 00:39:25;;;;;;;3.17;3.08;;;0.50;99.90;;;;;;5039094;28;20079;-74
2022/12/09 00:41:50;;;;;;;3.85;3.75;;;0.40;99.90;;;;;;5041587;28;20057;-74
2022/12/09 00:44:16;;;;;;;3.65;3.55;;;0.40;99.90;;;;;;5032583;28;20434;-74
2022/12/09 00:46:42;;;;;;;3.47;3.38;;;0.40;99.90;;;;;;5043460;28;20387;-74
2022/12/09 00:49:08;;;;;;;3.40;3.30;;;0.40;99.90;;;;;;5038865;28;20021;-74
2022/12/09 00:51:34;;;;;;;3.30;3.20;;;0.30;99.90;;;;;;5041551;28;20028;-74
2022/12/09 00:53:59;;;;;;;4.88;4.15;;;0.30;99.90;;;;;;5044582;28;20630;-74
2022/12/09 00:56:27;;;;;;;3.28;3.17;;;0.30;99.90;;;;;;5032413;28;20411;-75
2022/12/09 00:58:53;;;;;;;3.55;3.45;;;0.30;99.90;;;;;;5045543;28;20044;-74
2022/12/09 01:01:19;;;;;;;3.47;3.38;;;0.30;99.90;;;;;;5032365;28;20403;-75
2022/12/09 01:03:44;;;;;;;3.42;3.33;;;0.40;99.90;;;;;;5045548;28;20033;-75
2022/12/09 01:06:19;;;;;;;16.50;7.68;;;0.40;99.90;;;;;;5041096;28;20036;-75
2022/12/09 01:08:46;;;;;;;3.78;3.67;;;0.30;99.90;;;;;;5038580;28;20482;-75
2022/12/09 01:11:15;;;;;;;3.90;3.80;;;0.20;99.90;;;;;;5040670;28;20052;-75
2022/12/09 01:13:41;;;;;;;3.45;3.35;;;0.20;99.90;;;;;;5045498;28;20034;-75
2022/12/09 01:16:22;;;;;;;4.38;4.18;;;0.20;99.90;;;;;;5043724;28;20036;-75
2022/12/09 01:18:48;;;;;;;3.25;3.15;;;0.00;99.90;;;;;;5024415;28;20039;-75
2022/12/09 01:21:13;;;;;;;3.03;2.92;;;0.00;99.90;;;;;;5038156;28;20056;-75
2022/12/09 01:23:39;;;;;;;2.95;2.85;;;-0.10;99.90;;;;;;5044730;28;20029;-75
2022/12/09 01:26:06;;;;;;;3.13;3.03;;;-0.20;99.90;;;;;;5045307;28;20032;-75
2022/12/09 01:28:34;;;;;;;3.25;3.15;;;-0.20;99.90;;;;;;5038770;28;20029;-75
2022/12/09 01:31:13;;;;;;;5.07;4.88;;;-0.10;99.90;;;;;;5038310;28;20029;-75
2022/12/09 01:33:40;;;;;;;3.72;3.63;;;-0.20;99.90;;;;;;5042447;28;20038;-75
2022/12/09 01:36:08;;;;;;;3.30;3.20;;;-0.20;99.90;;;;;;5045178;28;20140;-75
2022/12/09 01:38:34;;;;;;;3.08;2.97;;;-0.20;99.90;;;;;;5040110;28;20553;-75
2022/12/09 01:40:59;;;;;;;11.15;10.45;;;-0.20;99.90;;;;;;5038224;28;20029;-75
2022/12/09 01:43:25;;;;;;;4.65;4.45;;;-0.20;99.90;;;;;;5041878;28;20427;-75
2022/12/09 01:45:51;;;;;;;5.05;4.82;;;-0.20;99.90;;;;;;5045223;28;20034;-75
2022/12/09 01:48:19;;;;;;;5.05;4.75;;;-0.20;99.90;;;;;;5040942;28;20091;-75
2022/12/09 01:50:51;;;;;;;3.80;3.70;;;-0.20;99.90;;;;;;5038127;28;20075;-75
2022/12/09 01:53:18;;;;;;;3.10;3.00;;;-0.20;99.90;;;;;;5039895;28;20545;-75
2022/12/09 01:55:45;;;;;;;3.45;3.35;;;-0.20;99.90;;;;;;5034796;28;20079;-75
2022/12/09 01:58:11;;;;;;;3.45;3.35;;;-0.30;99.90;;;;;;5040089;28;20068;-75
2022/12/09 02:00:37;;;;;;;4.38;4.28;;;-0.30;99.90;;;;;;5044839;28;20022;-74
2022/12/09 02:03:04;;;;;;;3.20;3.10;;;-0.30;99.90;;;;;;5041458;28;20036;-75
2022/12/09 02:05:30;;;;;;;3.53;3.42;;;-0.40;99.90;;;;;;5036644;28;20070;-76
2022/12/09 02:07:55;;;;;;;3.15;3.05;;;-0.40;99.90;;;;;;5040103;28;20049;-74
2022/12/09 02:10:21;;;;;;;3.00;2.90;;;-0.40;99.90;;;;;;5044769;28;20049;-75
2022/12/09 02:13:15;;;;;;;3.08;2.97;;;-0.50;99.90;;;;;;5042531;28;20017;-74
2022/12/09 02:15:46;;;;;;;4.30;4.10;;;-0.60;99.90;;;;;;5026773;28;20140;-75
2022/12/09 02:18:17;;;;;;;3.05;2.95;;;-0.80;99.90;;;;;;5037816;28;20148;-75
2022/12/09 02:20:56;;;;;;;3.38;3.28;;;-0.80;99.90;;;;;;5041545;28;20025;-74
2022/12/09 02:23:26;;;;;;;3.22;3.13;;;-0.80;99.90;;;;;;5043568;28;20030;-74
2022/12/09 02:25:56;;;;;;;3.00;2.90;;;-0.90;99.90;;;;;;5030147;28;20021;-75
2022/12/09 02:28:36;;;;;;;4.30;4.20;;;-0.90;99.90;;;;;;5029736;28;20017;-75
2022/12/09 02:31:23;;;;;;;2.70;2.60;;;-0.90;99.90;;;;;;5031300;28;20113;-75
2022/12/09 02:34:10;;;;;;;3.03;2.92;;;-1.00;99.90;;;;;;5045013;28;20057;-75
2022/12/09 02:36:58;;;;;;;2.47;2.38;;;-1.10;99.90;;;;;;5022238;28;20032;-76
2022/12/09 02:39:42;;;;;;;4.05;3.88;;;-1.10;99.90;;;;;;5051715;28;20056;-74
2022/12/09 02:42:11;;;;;;;2.63;2.53;;;-1.10;99.90;;;;;;5042226;28;20060;-75
2022/12/09 02:44:39;;;;;;;5.38;5.18;;;-1.10;99.90;;;;;;5048180;28;20022;-75
2022/12/09 02:47:08;;;;;;;2.75;2.65;;;-1.20;99.90;;;;;;5046156;28;20025;-75
2022/12/09 02:49:34;;;;;;;2.28;2.17;;;-1.20;99.90;;;;;;5026671;28;20104;-74
2022/12/09 02:52:02;;;;;;;3.25;3.15;;;-1.20;99.90;;;;;;5041310;28;20021;-75
2022/12/09 02:54:32;;;;;;;4.57;4.32;;;-1.20;99.90;;;;;;5022102;28;20112;-74
2022/12/09 02:57:07;;;;;;;3.15;3.05;;;-1.20;99.90;;;;;;5047622;28;20113;-75
2022/12/09 02:59:32;;;;;;;2.42;2.33;;;-1.30;99.90;;;;;;5043881;28;20029;-75
2022/12/09 03:02:13;;;;;;;2.75;2.65;;;-1.40;99.90;;;;;;5039681;28;20442;-76
2022/12/09 03:04:43;;;;;;;2.92;2.83;;;-1.40;99.90;;;;;;5043313;28;20069;-75
2022/12/09 03:07:46;;;;;;;2.45;2.35;;;-1.30;99.90;;;;;;5046174;28;20017;-75
2022/12/09 03:10:19;;;;;;;2.60;2.50;;;-1.20;99.90;;;;;;5051301;28;20429;-74
2022/12/09 03:12:50;;;;;;;2.88;2.78;;;-1.40;99.90;;;;;;5042783;28;20119;-74
2022/12/09 03:15:21;;;;;;;2.50;2.40;;;-1.40;99.90;;;;;;5047693;28;20041;-75
2022/12/09 03:17:47;;;;;;;2.88;2.78;;;-1.40;99.90;;;;;;5046685;28;20043;-74
2022/12/09 03:20:17;;;;;;;3.00;2.90;;;-1.20;99.90;;;;;;5040607;28;20446;-75
2022/12/09 03:22:46;;;;;;;2.50;2.40;;;-1.20;99.90;;;;;;5040738;28;20033;-75
2022/12/09 03:25:23;;;;;;;2.92;2.83;;;-1.20;99.90;;;;;;5027929;28;20052;-74
2022/12/09 03:27:54;;;;;;;2.72;2.63;;;-1.10;99.90;;;;;;5040324;28;20030;-75
2022/12/09 03:30:19;;;;;;;2.20;2.15;;;-1.10;99.90;;;;;;5054025;28;20040;-74
2022/12/09 03:32:45;;;;;;;2.70;2.60;;;-1.10;99.90;;;;;;5040569;28;20029;-75
2022/12/09 03:35:34;;;;;;;2.80;2.70;;;-1.00;99.90;;;;;;5044889;28;20096;-75
2022/12/09 03:38:03;;;;;;;2.67;2.58;;;-1.00;99.90;;;;;;5046877;28;20079;-75
2022/12/09 03:40:31;;;;;;;3.05;2.95;;;-1.10;99.90;;;;;;5046527;28;20029;-74
2022/12/09 03:43:05;;;;;;;3.47;3.38;;;-1.20;99.90;;;;;;5040105;28;20053;-74
2022/12/09 03:45:32;;;;;;;3.15;3.05;;;-1.20;99.90;;;;;;5040170;28;20021;-74
2022/12/09 03:47:57;;;;;;;2.95;2.85;;;-1.20;99.90;;;;;;5044844;28;20026;-74
2022/12/09 03:50:27;;;;;;;2.60;2.50;;;-1.30;99.90;;;;;;5046973;28;20086;-74
2022/12/09 03:53:03;;;;;;;2.70;2.60;;;-1.30;99.90;;;;;;5041683;28;20048;-74
2022/12/09 03:55:46;;;;;;;2.60;2.50;;;-1.20;99.90;;;;;;5053498;28;20032;-75
2022/12/09 03:58:13;;;;;;;3.00;2.90;;;-1.30;99.90;;;;;;5041877;28;20116;-74
2022/12/09 04:00:39;;;;;;;2.83;2.72;;;-1.30;99.90;;;;;;5046731;28;20025;-75
2022/12/09 04:03:06;;;;;;;2.85;2.75;;;-1.30;99.90;;;;;;5032044;28;20056;-73
2022/12/09 04:05:32;;;;;;;3.95;3.85;;;-1.20;99.90;;;;;;5038334;28;20049;-73
2022/12/09 04:07:58;;;;;;;6.10;5.65;;;-1.20;99.90;;;;;;5041260;28;20099;-73
2022/12/09 04:10:23;;;;;;;2.72;2.63;;;-1.20;99.90;;;;;;5045149;28;20046;-74
2022/12/09 04:12:49;;;;;;;3.50;3.40;;;-1.20;99.90;;;;;;5031919;28;20132;-74
2022/12/09 04:15:15;;;;;;;2.65;2.55;;;-1.50;99.90;;;;;;5037896;28;20040;-74
2022/12/09 04:17:40;;;;;;;2.83;2.72;;;-1.40;99.90;;;;;;5040491;28;20077;-75
2022/12/09 04:20:06;;;;;;;2.65;2.55;;;-1.40;99.90;;;;;;5036353;28;20083;-74
2022/12/09 04:22:32;;;;;;;4.50;4.30;;;-1.40;99.90;;;;;;5041566;28;20029;-73
2022/12/09 04:24:57;;;;;;;2.90;2.80;;;-1.40;99.90;;;;;;5046168;28;20044;-73
2022/12/09 04:27:23;;;;;;;2.30;2.20;;;-1.40;99.90;;;;;;5044037;28;20502;-73
2022/12/09 04:29:49;;;;;;;2.45;2.35;;;-1.50;99.90;;;;;;5039285;28;20025;-73
2022/12/09 04:32:14;;;;;;;2.75;2.65;;;-1.50;99.90;;;;;;5042082;28;20518;-73
2022/12/09 04:34:40;;;;;;;2.90;2.80;;;-1.50;99.90;;;;;;5044899;28;20459;-73
2022/12/09 04:37:05;;;;;;;2.60;2.50;;;-1.50;99.90;;;;;;5041884;28;20021;-73
2022/12/09 04:39:31;;;;;;;2.00;2.00;;;-1.50;99.90;;;;;;5034981;28;20029;-72
2022/12/09 04:41:56;;;;;;;2.40;2.30;;;-1.60;99.90;;;;;;5032645;28;20030;-73
2022/12/09 04:44:22;;;;;;;2.67;2.58;;;-1.60;99.90;;;;;;5045744;28;20025;-74
2022/12/09 04:46:47;;;;;;;2.63;2.53;;;-1.50;99.90;;;;;;5043187;28;20568;-73
2022/12/09 04:49:13;;;;;;;2.10;2.10;;;-1.50;99.90;;;;;;5039028;28;20433;-73
2022/12/09 04:51:39;;;;;;;2.60;2.50;;;-1.40;99.90;;;;;;5052363;28;20017;-74
2022/12/09 04:54:04;;;;;;;5.53;5.20;;;-1.30;99.90;;;;;;5048133;28;20035;-75
2022/12/09 04:56:30;;;;;;;2.38;2.28;;;-1.40;99.90;;;;;;5042481;28;20029;-75
2022/12/09 04:58:55;;;;;;;2.58;2.47;;;-1.50;99.90;;;;;;5038780;28;20028;-75
2022/12/09 05:01:22;;;;;;;2.72;2.63;;;-1.50;99.90;;;;;;5041330;28;20053;-74
2022/12/09 05:03:49;;;;;;;2.83;2.72;;;-1.60;99.90;;;;;;5032126;28;20069;-74
2022/12/09 05:06:16;;;;;;;2.75;2.65;;;-1.50;99.90;;;;;;5043235;28;20027;-74
2022/12/09 05:08:42;;;;;;;3.20;3.10;;;-1.50;99.90;;;;;;5036976;28;20036;-74
2022/12/09 05:11:08;;;;;;;2.22;2.15;;;-1.40;99.90;;;;;;5039491;28;20028;-74
2022/12/09 05:13:34;;;;;;;3.00;2.90;;;-1.50;99.90;;;;;;5045554;28;20379;-75
2022/12/09 05:16:00;;;;;;;3.75;3.65;;;-1.50;99.90;;;;;;5043172;28;20064;-74
2022/12/09 05:18:26;;;;;;;2.40;2.30;;;-1.40;99.90;;;;;;5033597;28;20037;-75
2022/12/09 05:20:52;;;;;;;2.50;2.40;;;-1.40;99.90;;;;;;5030486;28;20041;-74
2022/12/09 05:23:17;;;;;;;3.15;3.05;;;-1.30;99.90;;;;;;5036324;28;20033;-75
2022/12/09 05:25:43;;;;;;;14.95;11.30;;;-1.20;99.90;;;;;;5040553;28;20021;-74
2022/12/09 05:28:08;;;;;;;8.05;7.60;;;-1.40;99.90;;;;;;5043579;28;20052;-74
2022/12/09 05:30:35;;;;;;;5.40;5.05;;;-1.40;99.90;;;;;;5041797;28;20056;-74
2022/12/09 05:33:01;;;;;;;2.65;2.55;;;-1.30;99.90;;;;;;5032698;28;20410;-74
2022/12/09 05:35:27;;;;;;;3.03;2.92;;;-1.20;99.90;;;;;;5043193;28;20027;-76
2022/12/09 05:37:52;;;;;;;2.95;2.85;;;-1.20;99.90;;;;;;5036623;28;20029;-75
2022/12/09 05:40:18;;;;;;;3.40;3.30;;;-1.00;99.90;;;;;;5040622;28;20383;-75
2022/12/09 05:42:43;;;;;;;2.65;2.55;;;-1.00;99.90;;;;;;5031688;28;20029;-74
2022/12/09 05:45:09;;;;;;;3.17;3.08;;;-1.00;99.90;;;;;;5042954;28;20475;-74
2022/12/09 05:47:36;;;;;;;6.18;5.05;;;-1.00;99.90;;;;;;5032430;28;20025;-74
2022/12/09 05:50:02;;;;;;;2.40;2.30;;;-1.00;99.90;;;;;;5031698;28;20379;-74
2022/12/09 05:52:28;;;;;;;4.38;4.18;;;-0.90;99.90;;;;;;5049492;28;20057;-74
2022/12/09 05:54:54;;;;;;;2.83;2.72;;;-0.90;99.90;;;;;;5051639;28;20077;-74
2022/12/09 05:57:19;;;;;;;3.17;3.08;;;-0.90;99.90;;;;;;5036905;28;20032;-74
2022/12/09 05:59:45;;;;;;;2.70;2.60;;;-0.90;99.90;;;;;;5040413;28;20075;-75
2022/12/09 06:02:10;;;;;;;3.10;3.00;;;-0.90;99.90;;;;;;5031665;28;20030;-76
2022/12/09 06:04:36;;;;;;;3.22;3.13;;;-0.90;99.90;;;;;;5031579;28;20021;-76
2022/12/09 06:07:02;;;;;;;2.88;2.78;;;-1.00;99.90;;;;;;5032039;28;20117;-75
2022/12/09 06:09:27;;;;;;;3.20;3.10;;;-0.80;99.90;;;;;;5045777;28;20029;-76
2022/12/09 06:11:53;;;;;;;3.55;3.45;;;-0.80;99.90;;;;;;5051132;28;20138;-75
2022/12/09 06:14:18;;;;;;;2.92;2.83;;;-0.90;99.90;;;;;;5035487;28;20479;-75
2022/12/09 06:16:44;;;;;;;3.33;3.22;;;-0.90;99.90;;;;;;5035348;28;20033;-75
2022/12/09 06:19:13;;;;;;;3.30;3.20;;;-0.80;99.90;;;;;;5046080;28;20083;-75
2022/12/09 06:21:40;;;;;;;3.22;3.13;;;-0.90;99.90;;;;;;5041951;28;20027;-76
2022/12/09 06:24:07;;;;;;;3.20;3.10;;;-0.80;99.90;;;;;;5043608;28;20098;-76
2022/12/09 06:26:33;;;;;;;3.40;3.30;;;-0.80;99.90;;;;;;5040211;28;20070;-75
2022/12/09 06:28:58;;;;;;;3.33;3.22;;;-0.80;99.90;;;;;;5043222;28;20017;-77
2022/12/09 06:31:25;;;;;;;3.03;2.92;;;-0.80;99.90;;;;;;5040047;28;20025;-75
2022/12/09 06:33:51;;;;;;;3.83;3.58;;;-0.70;99.90;;;;;;5042961;28;20479;-76
2022/12/09 06:36:16;;;;;;;3.28;3.17;;;-0.70;99.90;;;;;;5038398;28;20033;-75
2022/12/09 06:38:42;;;;;;;3.75;3.55;;;-0.70;99.90;;;;;;5043091;28;20056;-75
2022/12/09 06:41:09;;;;;;;3.42;3.33;;;-0.70;99.90;;;;;;5048305;28;20112;-74
2022/12/09 06:43:36;;;;;;;3.05;2.95;;;-0.60;99.90;;;;;;5034863;28;20783;-75
2022/12/09 06:46:02;;;;;;;2.85;2.75;;;-0.50;99.90;;;;;;5048738;28;20471;-77
2022/12/09 06:48:27;;;;;;;3.10;3.00;;;-0.50;99.90;;;;;;5045392;28;20506;-75
2022/12/09 06:50:53;;;;;;;2.75;2.65;;;-0.50;99.90;;;;;;5036276;28;20021;-75
2022/12/09 06:53:18;;;;;;;3.53;3.42;;;-0.40;99.90;;;;;;5033674;28;20029;-75
2022/12/09 06:55:44;;;;;;;2.92;2.83;;;-0.40;99.90;;;;;;5034624;28;20017;-75
2022/12/09 06:58:10;;;;;;;2.88;2.78;;;-0.60;99.90;;;;;;5044127;28;20039;-74
2022/12/09 07:00:36;;;;;;;3.47;3.38;;;-0.70;99.90;;;;;;5036743;28;20108;-75
2022/12/09 07:03:01;;;;;;;3.55;3.45;;;-0.70;99.90;;;;;;5044313;28;20079;-75
2022/12/09 07:05:27;;;;;;;3.15;3.05;;;-0.70;99.90;;;;;;5039674;28;20028;-75
2022/12/09 07:07:52;;;;;;;3.08;2.97;;;-0.60;99.90;;;;;;5043062;28;20022;-75
2022/12/09 07:10:19;;;;;;;3.95;3.85;;;-0.70;99.90;;;;;;5047681;28;20017;-75
2022/12/09 07:12:44;;;;;;;3.72;3.63;;;-0.70;99.90;;;;;;5045402;28;20032;-75
2022/12/09 07:15:10;;;;;;;3.47;3.38;;;-0.70;99.90;;;;;;5036834;28;20033;-76
2022/12/09 07:17:36;;;;;;;13.00;6.03;;;-0.80;99.90;;;;;;5033623;28;20040;-75
2022/12/09 07:20:01;;;;;;;3.33;3.22;;;-0.90;99.90;;;;;;5035212;28;20025;-74
2022/12/09 07:22:27;;;;;;;4.15;4.05;;;-0.80;99.90;;;;;;5042267;28;20163;-74
2022/12/09 07:24:52;;;;;;;3.08;2.97;;;-0.80;99.90;;;;;;5047412;28;20037;-74
2022/12/09 07:27:18;;;;;;;5.13;4.88;;;-0.70;99.90;;;;;;5043747;28;20029;-74
2022/12/09 07:29:44;;;;;;;3.45;3.35;;;-0.60;99.90;;;;;;5039504;28;20360;-74
2022/12/09 07:32:10;;;;;;;3.70;3.60;;;-0.70;99.90;;;;;;5043990;28;20033;-75
2022/12/09 07:34:37;;;;;;;8.43;7.93;;;-0.70;99.90;;;;;;5045709;28;20418;-75
2022/12/09 07:37:02;;;;;;;3.85;3.75;;;-0.70;99.90;;;;;;5033136;28;20025;-74
2022/12/09 07:39:28;;;;;;;4.40;4.30;;;-0.60;99.90;;;;;;5032484;28;20094;-74
2022/12/09 07:41:55;;;;;;;3.75;3.50;;;-0.50;99.90;;;;;;5033671;28;20095;-74
2022/12/09 07:44:22;;;;;;;4.90;4.72;;;-0.50;99.90;;;;;;5047064;28;20049;-74
2022/12/09 07:46:47;;;;;;;3.88;3.58;;;-0.50;99.90;;;;;;5041943;28;20078;-74
2022/12/09 07:49:13;;;;;;;5.88;5.35;;;-0.60;99.90;;;;;;5040066;28;20025;-75
2022/12/09 07:51:39;;;;;;;3.58;3.47;;;-0.70;99.90;;;;;;5043716;28;20053;-75
2022/12/09 07:54:05;;;;;;;3.70;3.60;;;-0.60;99.90;;;;;;5048911;28;20056;-74
2022/12/09 07:56:30;;;;;;;3.58;3.47;;;-0.60;99.90;;;;;;5042554;28;20029;-74
2022/12/09 07:58:56;;;;;;;3.58;3.47;;;-0.60;99.90;;;;;;5044889;28;20021;-74
2022/12/09 08:01:25;;;;;;;8.20;7.88;;;-0.50;99.90;;;;;;5044288;28;20418;-74
2022/12/09 08:03:51;;;;;;;15.65;9.10;;;-0.50;99.90;;;;;;5035033;28;20060;-75
2022/12/09 08:06:19;;;;;;;4.80;4.60;;;-0.50;99.90;;;;;;5043204;28;20021;-75
2022/12/09 08:08:45;;;;;;;4.38;4.18;;;-0.60;99.90;;;;;;5046686;28;20263;-75
2022/12/09 08:11:22;;;;;;;3.83;3.72;;;-0.50;99.90;;;;;;5033230;28;20104;-75
2022/12/09 08:13:49;;;;;;;4.10;4.00;;;-0.50;99.90;;;;;;5038704;28;20068;-75
2022/12/09 08:16:16;;;;;;;5.25;5.03;;;-0.50;99.90;;;;;;5037102;28;20483;-75
2022/12/09 08:18:43;;;;;;;3.65;3.55;;;-0.40;99.90;;;;;;5029973;28;20033;-74
2022/12/09 08:21:11;;;;;;;3.90;3.70;;;-0.50;99.90;;;;;;5044108;28;20029;-75
2022/12/09 08:23:38;;;;;;;3.50;3.40;;;-0.50;99.90;;;;;;5029557;28;20030;-75
2022/12/09 08:26:04;;;;;;;3.53;3.42;;;-0.40;99.90;;;;;;5044139;28;20742;-75
2022/12/09 08:28:30;;;;;;;3.63;3.53;;;-0.40;99.90;;;;;;5035674;28;20468;-76
2022/12/09 08:30:56;;;;;;;3.33;3.22;;;-0.20;99.90;;;;;;5035226;28;20025;-76
2022/12/09 08:33:22;;;;;;;3.55;3.45;;;0.10;99.90;;;;;;5039349;28;20108;-75
2022/12/09 08:35:47;;;;;;;3.42;3.33;;;0.20;99.90;;;;;;5037624;28;20605;-76
2022/12/09 08:38:13;;;;;;;3.00;2.90;;;0.30;99.90;;;;;;5028960;28;20083;-75
2022/12/09 08:40:38;;;;;;;3.40;3.30;;;0.30;99.90;;;;;;5043899;28;20387;-75
2022/12/09 08:43:07;;;;;;;3.17;3.08;;;0.30;99.90;;;;;;5029932;28;20030;-75
2022/12/09 08:45:37;;;;;;;3.47;3.38;;;0.50;99.90;;;;;;5042672;28;20032;-75
2022/12/09 08:48:03;;;;;;;3.58;3.47;;;0.50;99.90;;;;;;5030133;28;20018;-75
2022/12/09 08:50:29;;;;;;;5.03;4.72;;;0.40;99.90;;;;;;5045271;28;20021;-75
2022/12/09 08:52:55;;;;;;;3.60;3.50;;;0.20;99.90;;;;;;5031026;28;20036;-75
2022/12/09 08:55:20;;;;;;;3.25;3.15;;;0.20;99.90;;;;;;5030892;28;20030;-74
2022/12/09 08:57:46;;;;;;;4.38;4.18;;;0.20;99.90;;;;;;5039281;28;20029;-77
2022/12/09 09:00:12;;;;;;;5.03;4.28;;;0.30;99.90;;;;;;5052150;28;20029;-73
2022/12/09 09:02:38;;;;;;;5.18;4.97;;;0.40;99.90;;;;;;5050324;28;20020;-75
2022/12/09 09:05:04;;;;;;;3.85;3.75;;;0.50;99.90;;;;;;5034784;28;20502;-74
2022/12/09 09:07:30;;;;;;;3.60;3.50;;;0.60;99.90;;;;;;5030600;28;20030;-74
2022/12/09 09:09:55;;;;;;;3.75;3.65;;;0.70;99.90;;;;;;5028973;28;20079;-75
2022/12/09 09:12:21;;;;;;;7.00;6.38;;;0.70;99.90;;;;;;5031225;28;20025;-74
2022/12/09 09:14:47;;;;;;;3.22;3.13;;;0.80;99.90;;;;;;5031287;28;20483;-74
2022/12/09 09:17:12;;;;;;;5.68;5.20;;;0.90;99.90;;;;;;5044445;28;20033;-76
2022/12/09 09:19:38;;;;;;;3.55;3.45;;;1.00;99.90;;;;;;5031191;28;20108;-75
2022/12/09 09:22:03;;;;;;;3.30;3.20;;;1.00;99.90;;;;;;5044587;28;20167;-75
2022/12/09 09:24:30;;;;;;;7.13;4.72;;;1.00;99.90;;;;;;5031858;28;20517;-76
2022/12/09 09:26:56;;;;;;;3.42;3.33;;;1.00;99.90;;;;;;5037256;28;20025;-73
2022/12/09 09:29:22;;;;;;;4.45;4.15;;;1.00;99.90;;;;;;5038071;28;20491;-77
2022/12/09 09:31:52;;;;;;;3.47;3.38;;;1.00;99.90;;;;;;5031883;28;20394;-75
2022/12/09 09:34:19;;;;;;;4.38;4.18;;;0.90;99.90;;;;;;5032398;28;20021;-76
2022/12/09 09:36:45;;;;;;;3.90;3.80;;;0.80;99.90;;;;;;5044274;28;20029;-75
2022/12/09 09:39:11;;;;;;;3.17;3.08;;;0.90;99.90;;;;;;5029829;28;20037;-75
2022/12/09 09:41:45;;;;;;;4.20;3.85;;;0.90;99.90;;;;;;5031353;28;20018;-75
2022/12/09 09:44:32;;;;;;;4.45;4.25;;;0.90;99.90;;;;;;5031619;28;20446;-76
2022/12/09 09:46:58;;;;;;;2.85;2.75;;;1.00;99.90;;;;;;5029709;28;20021;-77
2022/12/09 09:49:30;;;;;;;3.00;2.90;;;1.20;99.90;;;;;;5031590;28;20136;-75
2022/12/09 09:51:55;;;;;;;3.33;3.22;;;1.30;99.90;;;;;;5031706;28;20056;-76
2022/12/09 09:54:21;;;;;;;5.45;2.88;;;1.50;99.90;;;;;;5050127;28;20029;-76
2022/12/09 09:57:01;;;;;;;3.78;3.65;;;1.40;99.90;;;;;;5049710;28;20029;-75
2022/12/09 09:59:47;;;;;;;3.08;2.97;;;1.50;99.90;;;;;;5028356;28;20029;-75
2022/12/09 10:02:16;;;;;;;3.47;3.38;;;1.50;99.90;;;;;;5045717;28;20076;-76
2022/12/09 10:04:51;;;;;;;3.17;3.08;;;1.30;99.90;;;;;;5042595;28;20024;-77
2022/12/09 10:07:25;;;;;;;2.90;2.80;;;1.40;99.90;;;;;;5031764;28;20021;-76
2022/12/09 10:10:12;;;;;;;2.60;2.50;;;1.50;99.90;;;;;;5037490;28;20025;-77
2022/12/09 10:12:45;;;;;;;4.78;4.45;;;1.70;99.90;;;;;;5037187;28;20026;-78
2022/12/09 10:15:14;;;;;;;3.45;3.25;;;1.80;99.90;;;;;;5041711;28;20060;-78
2022/12/09 10:17:54;;;;;;;2.50;2.40;;;1.90;99.90;;;;;;5042194;28;20048;-79
2022/12/09 10:20:27;;;;;;;2.47;2.38;;;2.10;99.90;;;;;;5033377;28;20057;-79
2022/12/09 10:23:08;;;;;;;3.85;3.65;;;2.10;99.90;;;;;;5043835;28;20029;-77
2022/12/09 10:25:37;;;;;;;1.80;1.80;;;2.20;99.90;;;;;;5041133;28;20491;-77
2022/12/09 10:28:17;;;;;;;3.42;3.25;;;2.30;99.90;;;;;;5037578;28;20063;-77
2022/12/09 10:30:42;;;;;;;1.45;1.45;;;2.30;99.90;;;;;;5050317;28;20119;-77
2022/12/09 10:33:13;;;;;;;2.00;1.90;;;2.40;99.90;;;;;;5036954;28;20103;-77
2022/12/09 10:35:38;;;;;;;1.70;1.70;;;2.40;99.90;;;;;;5038791;28;20071;-77
2022/12/09 10:38:09;;;;;;;2.00;1.80;;;2.60;99.90;;;;;;5045156;28;20034;-77
2022/12/09 10:40:43;;;;;;;2.97;2.78;;;2.60;99.90;;;;;;5044421;28;20029;-77
2022/12/09 10:43:33;;;;;;;2.15;2.13;;;2.40;99.90;;;;;;5027656;28;20490;-77
2022/12/09 10:46:00;;;;;;;4.03;3.78;;;2.50;99.90;;;;;;5038425;28;20168;-77
2022/12/09 10:48:35;;;;;;;2.40;2.30;;;2.40;99.90;;;;;;5040127;28;20029;-77
2022/12/09 10:51:12;;;;;;;5.32;3.05;;;2.40;99.90;;;;;;5052156;28;20028;-77
2022/12/09 10:53:47;;;;;;;1.40;1.40;;;2.50;99.90;;;;;;5040234;28;20033;-77
2022/12/09 10:56:24;;;;;;;2.85;2.70;;;2.50;99.90;;;;;;5036636;28;20025;-77
2022/12/09 10:59:16;;;;;;;3.53;2.28;;;2.60;99.90;;;;;;5037109;28;20083;-77
2022/12/09 11:01:56;;;;;;;2.60;2.42;;;2.50;99.90;;;;;;5041985;28;20488;-77
2022/12/09 11:04:31;;;;;;;2.60;2.40;;;2.50;99.90;;;;;;5044614;28;20028;-77
2022/12/09 11:07:20;;;;;;;3.08;2.90;;;2.40;99.90;;;;;;5038939;28;20029;-77
2022/12/09 11:10:03;;;;;;;1.20;1.20;;;2.40;99.90;;;;;;5044825;28;20071;-76
2022/12/09 11:12:32;;;;;;;1.38;1.38;;;2.60;99.90;;;;;;5020681;28;20021;-78
2022/12/09 11:15:04;;;;;;;1.33;1.33;;;2.70;99.90;;;;;;5032998;28;20086;-77
2022/12/09 11:17:40;;;;;;;1.90;1.80;;;2.70;99.90;;;;;;5037681;28;20033;-77
2022/12/09 11:20:09;;;;;;;1.00;1.00;;;2.60;99.90;;;;;;5036651;28;20490;-76
2022/12/09 11:22:39;;;;;;;1.10;1.10;;;2.50;99.90;;;;;;5045293;28;20036;-75
2022/12/09 11:25:27;;;;;;;0.80;0.80;;;2.50;99.90;;;;;;5040632;28;20025;-75
2022/12/09 11:27:57;;;;;;;1.08;1.08;;;2.50;99.90;;;;;;5038861;28;20021;-76
2022/12/09 11:30:33;;;;;;;6.25;2.90;;;2.40;99.90;;;;;;5044166;28;20028;-77
2022/12/09 11:33:14;;;;;;;0.98;0.98;;;2.20;99.90;;;;;;5045932;28;20457;-77
2022/12/09 11:35:42;;;;;;;2.17;1.67;;;2.20;99.90;;;;;;5033875;28;20053;-76
2022/12/09 11:38:21;;;;;;;5.20;4.85;;;2.20;99.90;;;;;;5045499;28;20017;-76
2022/12/09 11:41:09;;;;;;;0.52;0.52;;;2.20;99.90;;;;;;5047201;28;20090;-77
2022/12/09 11:43:46;;;;;;;0.50;0.50;;;2.20;99.90;;;;;;5029445;28;20038;-76
2022/12/09 11:46:11;;;;;;;8.38;6.22;;;2.20;99.90;;;;;;5038818;28;20510;-76
2022/12/09 11:48:49;;;;;;;0.52;0.52;;;2.10;99.90;;;;;;5041300;28;20026;-76
2022/12/09 11:51:36;;;;;;;0.60;0.60;;;2.10;99.90;;;;;;5027717;28;20017;-77
2022/12/09 11:54:10;;;;;;;1.33;1.23;;;2.20;99.90;;;;;;5037597;28;20551;-76
2022/12/09 11:56:38;;;;;;;0.52;0.52;;;2.30;99.90;;;;;;5045230;28;20478;-77
2022/12/09 11:59:12;;;;;;;0.50;0.50;;;2.40;99.90;;;;;;5039590;28;20021;-77
2022/12/09 12:01:46;;;;;;;0.75;0.75;;;2.50;99.90;;;;;;5039018;28;20128;-77
2022/12/09 12:04:17;;;;;;;0.45;0.45;;;2.60;99.90;;;;;;5028743;28;20025;-76
2022/12/09 12:07:04;;;;;;;0.50;0.50;;;2.70;99.90;;;;;;5038860;28;20104;-75
2022/12/09 12:09:44;;;;;;;1.50;1.40;;;2.80;99.90;;;;;;5042757;28;20018;-78
2022/12/09 12:12:17;;;;;;;3.63;2.47;;;2.80;99.90;;;;;;5032839;28;20028;-78
2022/12/09 12:14:44;;;;;;;0.65;0.65;;;2.70;99.90;;;;;;5046735;28;20025;-76
2022/12/09 12:17:32;;;;;;;1.08;0.93;;;2.70;99.90;;;;;;5060023;28;20096;-76
2022/12/09 12:19:58;;;;;;;0.50;0.50;;;2.40;99.90;;;;;;5055592;28;20045;-76
2022/12/09 12:22:45;;;;;;;0.40;0.40;;;2.40;99.90;;;;;;5045017;28;20029;-77
2022/12/09 12:25:38;;;;;;;0.43;0.43;;;2.40;99.90;;;;;;5028851;28;20072;-76
2022/12/09 12:28:07;;;;;;;0.50;0.50;;;2.50;99.90;;;;;;5046284;28;20021;-77
2022/12/09 12:30:43;;;;;;;0.50;0.50;;;2.40;99.90;;;;;;5052066;28;20414;-78
2022/12/09 12:33:26;;;;;;;0.50;0.50;;;2.40;99.90;;;;;;5056172;28;20045;-77
2022/12/09 12:36:16;;;;;;;0.47;0.47;;;2.30;99.90;;;;;;5041390;28;20018;-76
2022/12/09 12:39:33;;;;;;;0.68;0.68;;;2.40;99.90;;;;;;5050906;28;20059;-77
2022/12/09 12:42:13;;;;;;;0.52;0.52;;;2.40;99.90;;;;;;5018275;28;20025;-77
2022/12/09 12:48:15;;;;;;;0.95;0.95;;;2.20;99.90;;;;;;5035223;28;20740;-77
2022/12/09 12:50:51;;;;;;;0.50;0.50;;;2.20;99.90;;;;;;5036394;28;20036;-78
2022/12/09 12:53:58;;;;;;;0.38;0.38;;;2.30;99.90;;;;;;5044074;28;20075;-77
2022/12/09 12:56:38;;;;;;;0.40;0.40;;;2.30;99.90;;;;;;5031825;28;20029;-77
2022/12/09 12:59:22;;;;;;;0.40;0.40;;;2.40;99.90;;;;;;5038273;28;20059;-77
2022/12/09 13:01:53;;;;;;;0.40;0.40;;;2.40;99.90;;;;;;5039996;28;20036;-77
2022/12/09 13:04:46;;;;;;;1.20;1.20;;;2.60;99.90;;;;;;5046081;28;20029;-77
2022/12/09 13:07:53;;;;;;;0.60;0.60;;;2.50;99.90;;;;;;5046462;28;20032;-77